Latest Weather Observations for Shepparton

IDV60801

Issued at 1:02 pm EST Saturday 29 August 2015 (issued every 30 minutes, with the page automatically refreshed every 10 minutes)

About weather observations | Map of weather stations | Latest weather observations for VIC | Other Formats
Station Details ID: 081125 Name: SHEPPARTON AIRPORT Lat: -36.43 Lon: 145.39 Height: 113.9 m
Data from the previous 72 hours. | See also: Recent months at Shepparton
Date/Time
EST
Temp
°C
App
Temp
°C
Dew
Point
Rel
Hum
%
Delta-T
°C
Wind Press
QNH
hPa
Press
MSL
hPa
Rain
since 9 am
mm
Dir
 
Spd
km/h
Gust
km/h
Spd
kts
Gust
kts
29/01:00pm 9.9 3.9 3.4 64 2.8 SSW 24 33 13 18 1025.2 1025.4 0.0
29/12:30pm 10.4 3.9 2.7 59 3.3 S 26 37 14 20 1025.6 1025.8 0.0
29/12:00pm 10.7 4.1 2.3 56 3.6 S 26 35 14 19 1025.7 1025.9 0.0
29/11:30am 10.8 3.6 2.9 58 3.4 S 30 39 16 21 1025.9 1026.1 0.0
29/11:00am 9.8 3.4 3.3 64 2.8 S 26 37 14 20 1026.2 1026.4 0.0
29/10:30am 9.0 1.8 2.8 65 2.7 SSW 30 39 16 21 1026.3 1026.5 0.0
29/10:00am 9.0 3.7 3.2 67 2.5 SSW 20 28 11 15 1026.4 1026.6 0.0
29/09:30am 8.5 3.3 3.4 70 2.2 S 20 28 11 15 1026.4 1026.6 0.0
29/09:00am 7.5 2.8 3.0 73 1.9 S 17 22 9 12 1026.2 1026.4 0.2
29/08:30am 6.0 2.1 3.5 84 1.1 SW 13 17 7 9 1026.2 1026.4 0.2
29/08:00am 4.4 0.4 2.8 89 0.6 SW 13 17 7 9 1026.2 1026.4 0.2
29/07:30am 3.4 -1.1 2.1 91 0.5 SW 15 17 8 9 1025.9 1026.1 0.2
29/07:00am 2.8 -2.5 1.8 93 0.4 SSW 19 24 10 13 1025.6 1025.8 0.2
29/06:30am 1.0 -2.7 0.0 93 0.4 SW 9 11 5 6 1025.2 1025.4 0.2
29/06:00am 1.6 -2.8 0.6 93 0.4 SW 13 15 7 8 1025.2 1025.4 0.2
29/05:30am 1.4 -2.3 0.1 91 0.5 SW 9 13 5 7 1024.9 1025.1 0.2
29/05:00am 2.0 -2.3 0.7 91 0.5 SW 13 15 7 8 1024.9 1025.1 0.2
29/04:30am 1.7 -2.3 0.8 94 0.3 WSW 11 15 6 8 1024.8 1025.0 0.2
29/04:00am 1.9 -1.7 0.4 90 0.6 SW 9 13 5 7 1024.6 1024.8 0.2
29/03:30am 2.5 -1.8 1.0 90 0.6 SW 13 17 7 9 1024.7 1024.9 0.2
29/03:00am 2.9 -1.3 1.4 90 0.6 WSW 13 15 7 8 1025.0 1025.2 0.2
29/02:30am 4.1 -0.1 1.6 84 1.0 SW 13 17 7 9 1025.1 1025.3 0.2
29/02:00am 5.1 0.2 2.1 81 1.2 SSW 17 20 9 11 1025.2 1025.4 0.2
29/01:30am 5.2 0.4 2.6 83 1.1 SSW 17 22 9 12 1025.3 1025.5 0.2
29/01:00am 5.2 1.2 2.7 84 1.0 SSW 13 20 7 11 1025.4 1025.6 0.2
29/12:30am 5.7 1.4 3.0 83 1.1 SSW 15 20 8 11 1025.2 1025.4 0.2
29/12:00am 6.6 1.3 3.2 79 1.4 SSW 20 30 11 16 1025.2 1025.4 0.2
 
Date/Time
EST
Temp
°C
App
Temp
°C
Dew
Point
Rel
Hum
%
Delta-T
°C
Wind Press
QNH
hPa
Press
MSL
hPa
Rain
since 9 am
mm
Dir
 
Spd
km/h
Gust
km/h
Spd
kts
Gust
kts
28/11:30pm 7.3 1.0 3.5 77 1.6 SSW 26 33 14 18 1025.3 1025.5 0.2
28/11:00pm 7.8 2.6 3.8 76 1.7 S 20 28 11 15 1025.2 1025.4 0.2
28/10:30pm 8.0 2.2 4.4 78 1.6 SSW 24 33 13 18 1025.1 1025.3 0.2
28/10:00pm 8.3 2.6 4.7 78 1.6 SSW 24 32 13 17 1025.0 1025.2 0.2
28/09:30pm 8.0 2.7 4.9 81 1.4 SSW 22 28 12 15 1025.0 1025.2 0.2
28/09:00pm 8.1 3.2 5.0 81 1.4 SSW 20 28 11 15 1024.9 1025.1 0.2
28/08:30pm 8.5 3.7 5.4 81 1.4 SSW 20 32 11 17 1024.6 1024.8 0.2
28/08:00pm 8.9 4.2 6.0 82 1.3 SSW 20 28 11 15 1024.5 1024.7 0.2
28/07:30pm 9.4 4.4 6.3 81 1.4 SSW 22 30 12 16 1024.4 1024.6 0.2
28/07:00pm 10.1 5.0 6.1 76 1.9 SSW 22 32 12 17 1024.1 1024.3 0.2
28/06:30pm 10.2 6.0 5.6 73 2.1 SSW 17 24 9 13 1023.7 1023.9 0.2
28/06:00pm 10.7 6.5 5.5 70 2.4 SW 17 20 9 11 1023.4 1023.6 0.2
28/05:30pm 11.8 6.9 5.2 64 3.1 SW 20 28 11 15 1023.2 1023.4 0.2
28/05:00pm 12.7 7.7 4.7 58 3.7 SSW 20 28 11 15 1023.0 1023.2 0.2
28/04:30pm 13.0 7.4 5.4 60 3.6 SW 24 33 13 18 1022.9 1023.1 0.2
28/04:00pm 13.0 7.0 5.4 60 3.6 SSW 26 37 14 20 1022.8 1023.0 0.2
28/03:30pm 13.2 7.2 5.4 59 3.7 SSW 26 37 14 20 1022.9 1023.1 0.2
28/03:00pm 13.7 8.4 6.6 62 3.4 SSW 24 35 13 19 1022.9 1023.1 0.2
28/02:30pm 13.4 8.4 4.8 56 4.0 SSW 20 32 11 17 1022.8 1023.0 0.2
28/02:00pm 13.5 8.5 6.4 62 3.4 SSW 22 28 12 15 1023.0 1023.2 0.2
28/01:30pm 13.2 8.3 6.8 65 3.1 SSW 22 33 12 18 1023.2 1023.4 0.2
28/01:00pm 13.0 8.4 6.6 65 3.1 SSW 20 30 11 16 1023.3 1023.5 0.2
28/12:30pm 13.1 7.0 6.5 64 3.2 S 28 37 15 20 1023.9 1024.1 0.0
28/12:00pm 12.7 6.5 6.3 65 3.0 SSW 28 39 15 21 1024.3 1024.5 0.0
28/11:30am 12.4 6.5 6.0 65 3.0 S 26 33 14 18 1024.7 1024.9 0.0
28/11:00am 12.1 6.4 6.6 69 2.6 SSW 26 33 14 18 1024.8 1025.0 0.0
28/10:30am 11.7 7.4 7.0 73 2.3 SSW 19 32 10 17 1024.7 1024.9 0.0
28/10:00am 10.4 5.3 5.8 73 2.1 S 22 35 12 19 1024.7 1024.9 0.0
28/09:30am 11.0 6.4 6.7 75 2.0 SSW 20 28 11 15 1024.7 1024.9 0.0
28/09:00am 10.0 5.9 6.0 76 1.8 SSW 17 24 9 13 1024.5 1024.7 8.2
28/08:30am 9.1 5.4 6.4 83 1.3 SSW 15 22 8 12 1024.4 1024.6 8.2
28/08:00am 7.8 4.4 6.1 89 0.8 SSW 13 17 7 9 1024.2 1024.4 8.2
28/07:30am 5.5 2.7 5.1 97 0.2 SW 9 11 5 6 1024.0 1024.2 8.2
28/07:00am 5.3 2.8 4.7 96 0.3 WSW 7 9 4 5 1023.6 1023.8 8.2
28/06:30am 5.8 2.9 4.9 94 0.4 SSW 9 9 5 5 1023.3 1023.5 8.2
28/06:00am 6.2 3.4 5.2 93 0.4 SSW 9 13 5 7 1023.0 1023.2 8.2
28/05:30am 6.6 3.0 5.2 91 0.6 SSW 13 17 7 9 1022.7 1022.9 8.2
28/05:00am 7.1 3.7 5.7 91 0.6 SW 13 15 7 8 1022.6 1022.8 8.2
28/04:30am 7.6 3.8 5.9 89 0.8 SSW 15 20 8 11 1022.2 1022.4 8.2
28/04:00am 8.3 4.2 6.1 86 1.0 SSW 17 22 9 12 1022.1 1022.3 8.2
28/03:30am 9.2 3.9 6.6 84 1.2 SSW 24 35 13 19 1021.9 1022.1 8.2
28/03:00am 9.5 4.0 7.4 87 1.0 SSW 26 35 14 19 1021.9 1022.1 8.2
28/02:30am 9.4 5.3 7.8 90 0.8 SSW 19 26 10 14 1021.9 1022.1 8.2
28/02:00am 9.7 4.8 8.3 91 0.7 SSW 24 30 13 16 1021.9 1022.1 8.2
28/01:30am 9.9 5.5 9.1 95 0.4 SW 22 28 12 15 1021.8 1022.0 8.2
28/01:00am 9.7 6.4 9.4 98 0.1 SW 17 22 9 12 1021.6 1021.8 8.2
28/12:30am 9.7 6.0 9.4 98 0.1 SW 19 24 10 13 1021.4 1021.6 8.2
28/12:00am 9.8 6.2 9.7 99 0.1 SW 19 24 10 13 1021.5 1021.7 8.2
 
Date/Time
EST
Temp
°C
App
Temp
°C
Dew
Point
Rel
Hum
%
Delta-T
°C
Wind Press
QNH
hPa
Press
MSL
hPa
Rain
since 9 am
mm
Dir
 
Spd
km/h
Gust
km/h
Spd
kts
Gust
kts
27/11:30pm 9.5 6.2 9.4 99 0.0 SW 17 24 9 13 1021.3 1021.5 8.2
27/11:00pm 9.3 6.3 9.2 99 0.0 WSW 15 19 8 10 1021.3 1021.5 8.2
27/10:30pm 9.2 6.2 9.1 99 0.0 WSW 15 20 8 11 1021.3 1021.5 8.2
27/10:00pm 9.2 5.4 9.1 99 0.0 SW 19 26 10 14 1021.4 1021.6 8.0
27/09:30pm 9.1 5.0 8.8 98 0.1 SW 20 28 11 15 1021.5 1021.7 7.4
27/09:00pm 9.3 5.2 8.8 97 0.2 SW 20 26 11 14 1021.4 1021.6 6.4
27/08:30pm 9.5 5.7 9.0 97 0.2 WSW 19 24 10 13 1021.0 1021.2 5.8
27/08:00pm 9.5 6.1 9.0 97 0.2 WSW 17 22 9 12 1020.9 1021.1 5.6
27/07:30pm 9.5 6.7 8.7 95 0.4 WSW 13 17 7 9 1020.9 1021.1 4.2
27/07:00pm 9.8 5.9 8.7 93 0.5 SSW 19 26 10 14 1020.8 1021.0 2.6
27/06:30pm 10.0 6.7 9.5 97 0.3 SSW 17 20 9 11 1020.5 1020.7 0.8
27/06:00pm 10.5 6.7 8.9 90 0.8 SSW 19 26 10 14 1020.0 1020.1 0.0
27/05:30pm 10.7 7.3 9.0 89 0.8 SSW 17 24 9 13 1019.7 1019.8 0.0
27/05:00pm 11.0 7.2 8.9 87 1.0 SSW 19 26 10 14 1019.6 1019.7 0.0
27/04:30pm 11.2 8.2 9.1 87 1.1 SSW 15 20 8 11 1019.4 1019.5 0.0
27/04:00pm 11.7 7.7 9.1 84 1.3 SSW 20 32 11 17 1019.3 1019.4 0.0
27/03:30pm 12.5 8.1 9.0 79 1.8 S 22 30 12 16 1019.1 1019.3 0.0
27/03:00pm 12.3 8.6 9.5 83 1.4 SSW 19 24 10 13 1019.4 1019.5 0.0
27/02:30pm 11.7 7.8 9.4 86 1.2 S 20 28 11 15 1019.3 1019.4 0.0
27/02:05pm 11.6 8.0 9.9 89 0.9 SSW 19 26 10 14 1019.4 1019.5 0.0
27/02:00pm 11.2 7.5 9.6 90 0.8 SSW 19 24 10 13 1019.4 1019.5 0.0
27/01:50pm 11.3 7.5 9.9 91 0.7 SSW 20 32 11 17 1019.4 1019.5 0.0
27/01:48pm 11.1 7.2 9.5 90 0.8 SSW 20 32 11 17 1019.4 1019.5 0.0
27/01:36pm 11.2 8.0 9.8 91 0.7 SSW 17 22 9 12 1019.5 1019.6 0.0
27/01:30pm 11.5 7.8 10.2 92 0.7 SSW 20 30 11 16 1019.6 1019.7 0.0
27/01:00pm 11.6 7.4 9.9 89 0.9 SSW 22 30 12 16 1019.7 1019.8 0.0
27/12:30pm 12.1 8.4 10.2 88 1.0 SW 20 28 11 15 1020.0 1020.1 0.0
27/12:00pm 12.3 8.4 9.5 83 1.4 SW 20 28 11 15 1020.1 1020.2 0.0
27/11:30am 11.7 8.3 9.1 84 1.3 SW 17 22 9 12 1020.6 1020.8 0.0
27/11:00am 11.7 9.6 9.9 89 0.9 WSW 11 15 6 8 1020.8 1021.0 0.0
27/10:47am 11.4 9.0 10.0 91 0.7 WSW 13 19 7 10 1020.8 1021.0 0.0
27/10:30am 11.6 9.4 10.7 94 0.5 WSW 13 17 7 9 1020.8 1021.0 0.0
27/10:00am 11.2 9.0 10.7 97 0.3 WSW 13 19 7 10 1020.8 1021.0 0.0
27/09:56am 10.9 8.2 10.4 97 0.3 WSW 15 19 8 10 1020.8 1021.0 0.0
27/09:30am 10.9 8.7 10.7 99 0.1 WSW 13 17 7 9 1020.9 1021.1 0.0
27/09:23am 10.5 8.2 10.3 99 0.1 WSW 13 17 7 9 1021.0 1021.2 0.0
27/09:00am 9.9 7.4 9.8 99 0.1 WSW 13 22 7 12 1021.1 1021.3 3.0
27/08:44am 9.7 7.6 9.6 99 0.1 WNW 11 17 6 9 1021.1 1021.3 3.0
27/08:30am 9.9 7.8 9.8 99 0.1 WNW 11 15 6 8 1021.0 1021.2 3.0
27/08:00am 9.8 8.6 9.7 99 0.1 W 6 7 3 4 1021.0 1021.2 3.0
27/07:30am 9.4 7.9 9.3 99 0.0 WNW 7 9 4 5 1020.7 1020.9 3.0
27/07:00am 9.3 9.1 9.2 99 0.0 CALM 0 0 0 0 1020.4 1020.6 3.0
27/06:30am 9.2 7.9 9.1 99 0.0 WSW 6 7 3 4 1020.3 1020.4 3.0
27/06:00am 9.3 7.8 9.2 99 0.0 WSW 7 9 4 5 1020.2 1020.3 3.0
27/05:30am 9.2 7.9 9.1 99 0.0 SW 6 7 3 4 1020.1 1020.2 3.0
27/05:16am 9.3 8.0 9.2 99 0.0 WSW 6 7 3 4 1020.1 1020.2 3.0
27/05:02am 9.3 7.8 9.2 99 0.0 WSW 7 9 4 5 1020.2 1020.3 3.0
27/05:00am 9.3 7.8 9.2 99 0.0 WSW 7 9 4 5 1020.3 1020.4 3.0
27/04:42am 9.2 7.7 9.1 99 0.0 WSW 7 9 4 5 1020.3 1020.4 3.0
27/04:30am 9.1 8.1 9.0 99 0.0 WSW 4 9 2 5 1020.3 1020.4 3.0
27/04:05am 9.1 7.6 9.0 99 0.0 W 7 11 4 6 1020.4 1020.6 3.0
27/04:00am 8.9 7.9 8.8 99 0.0 W 4 11 2 6 1020.3 1020.4 3.0
27/03:32am 8.2 6.6 8.1 99 0.0 W 6 6 3 3 1020.4 1020.6 3.0
27/03:30am 8.2 6.6 8.1 99 0.0 W 6 7 3 4 1020.5 1020.7 3.0
27/03:00am 9.1 7.6 9.0 99 0.0 WSW 7 11 4 6 1020.6 1020.8 3.0
27/02:53am 8.9 7.3 8.8 99 0.0 WSW 7 9 4 5 1020.6 1020.8 3.0
27/02:30am 9.1 7.6 9.0 99 0.0 SW 7 9 4 5 1020.7 1020.9 3.0
27/02:02am 9.2 7.7 9.1 99 0.0 SSW 7 9 4 5 1021.0 1021.2 3.0
27/02:00am 9.3 7.8 9.2 99 0.0 SSW 7 9 4 5 1021.0 1021.2 3.0
27/01:30am 9.9 9.9 9.8 99 0.1 CALM 0 0 0 0 1021.5 1021.7 3.0
27/01:00am 10.0 8.9 9.9 99 0.1 SSE 6 9 3 5 1021.7 1021.9 3.0
27/12:30am 10.2 10.3 10.0 99 0.1 CALM 0 0 0 0 1022.1 1022.3 3.0
27/12:00am 10.2 9.1 10.0 99 0.1 ENE 6 7 3 4 1022.3 1022.5 3.0
 
Date/Time
EST
Temp
°C
App
Temp
°C
Dew
Point
Rel
Hum
%
Delta-T
°C
Wind Press
QNH
hPa
Press
MSL
hPa
Rain
since 9 am
mm
Dir
 
Spd
km/h
Gust
km/h
Spd
kts
Gust
kts
26/11:30pm 10.0 10.0 9.9 99 0.1 CALM 0 0 0 0 1022.5 1022.7 3.0
26/11:00pm 10.3 10.4 10.1 99 0.1 CALM 0 0 0 0 1022.5 1022.7 3.0
26/10:30pm 10.2 10.3 10.0 99 0.1 CALM 0 0 0 0 1022.8 1023.0 3.0
26/10:00pm 10.6 10.8 10.4 99 0.1 CALM 0 0 0 0 1022.9 1023.1 3.0
26/09:30pm 10.9 11.1 10.7 99 0.1 CALM 0 0 0 0 1023.0 1023.2 2.8
26/09:00pm 10.9 11.1 10.7 99 0.1 CALM 0 0 0 0 1023.3 1023.5 2.8
26/08:30pm 11.0 11.3 10.8 99 0.1 CALM 0 0 0 0 1023.3 1023.5 2.8
26/08:00pm 11.2 11.5 11.0 99 0.1 CALM 0 0 0 0 1023.4 1023.6 2.8
26/07:30pm 11.4 11.8 11.2 99 0.1 CALM 0 0 0 0 1023.4 1023.6 2.6
26/07:00pm 11.5 11.9 11.2 98 0.2 CALM 0 0 0 0 1023.3 1023.5 2.6
26/06:30pm 11.6 12.0 11.1 97 0.3 CALM 0 0 0 0 1023.2 1023.4 2.4
26/06:00pm 11.9 12.3 11.1 95 0.4 CALM 0 0 0 0 1023.1 1023.3 2.2
26/05:30pm 12.4 12.6 10.5 88 1.0 CALM 0 0 0 0 1023.2 1023.4 2.0
26/05:00pm 12.5 12.6 10.2 86 1.2 CALM 0 0 0 0 1023.0 1023.2 1.6
26/04:30pm 12.4 12.6 10.6 89 0.9 CALM 0 0 0 0 1022.9 1023.1 1.6
26/04:00pm 12.3 12.4 10.0 86 1.2 CALM 0 0 0 0 1022.9 1023.1 1.4
26/03:30pm 12.5 12.1 9.9 84 1.3 NNW 2 7 1 4 1023.1 1023.3 1.2
26/03:00pm 13.3 12.7 10.3 82 1.6 WNW 4 9 2 5 1023.1 1023.3 1.0
26/02:30pm 13.0 12.8 9.1 77 2.0 CALM 0 2 0 1 1023.0 1023.2 0.6
26/02:00pm 14.5 12.3 7.8 64 3.3 NNE 9 17 5 9 1023.0 1023.2 0.0
26/01:30pm 15.6 13.7 6.9 56 4.3 NE 6 11 3 6 1023.0 1023.2 0.0

Other Formats:

Comma delimited format used in spreadsheet applications
http://www.bom.gov.au/fwo/IDV60801/IDV60801.94875.axf

JavaScript Object Notation format (JSON) in row-major order
http://www.bom.gov.au/fwo/IDV60801/IDV60801.94875.json